sensor_id;sensor_type;location;lat;lon;timestamp;P1;durP1;ratioP1;P2;durP2;ratioP2
71360;SDS011;59166;48.908;1.870;2022-09-09T00:02:58;9.32;;;1.77;;
71360;SDS011;59166;48.908;1.870;2022-09-09T00:08:04;10.33;;;2.00;;
71360;SDS011;59166;48.908;1.870;2022-09-09T00:13:06;8.88;;;1.90;;
71360;SDS011;59166;48.908;1.870;2022-09-09T00:18:17;13.60;;;2.17;;
71360;SDS011;59166;48.908;1.870;2022-09-09T00:23:27;10.77;;;2.20;;
71360;SDS011;59166;48.908;1.870;2022-09-09T00:28:29;11.40;;;2.20;;
71360;SDS011;59166;48.908;1.870;2022-09-09T00:33:33;11.95;;;2.03;;
71360;SDS011;59166;48.908;1.870;2022-09-09T00:38:36;12.00;;;1.98;;
71360;SDS011;59166;48.908;1.870;2022-09-09T00:43:41;9.70;;;2.00;;
71360;SDS011;59166;48.908;1.870;2022-09-09T00:48:45;11.55;;;2.15;;
71360;SDS011;59166;48.908;1.870;2022-09-09T00:54:02;13.32;;;1.92;;
71360;SDS011;59166;48.908;1.870;2022-09-09T00:59:16;10.87;;;2.00;;
71360;SDS011;59166;48.908;1.870;2022-09-09T01:04:29;12.48;;;2.03;;
71360;SDS011;59166;48.908;1.870;2022-09-09T01:09:37;13.35;;;2.40;;
71360;SDS011;59166;48.908;1.870;2022-09-09T01:14:51;12.10;;;2.20;;
71360;SDS011;59166;48.908;1.870;2022-09-09T01:20:02;10.47;;;2.20;;
71360;SDS011;59166;48.908;1.870;2022-09-09T01:30:29;9.77;;;1.88;;
71360;SDS011;59166;48.908;1.870;2022-09-09T01:35:33;13.67;;;2.13;;
71360;SDS011;59166;48.908;1.870;2022-09-09T01:40:39;12.68;;;2.50;;
71360;SDS011;59166;48.908;1.870;2022-09-09T01:45:42;12.23;;;2.63;;
71360;SDS011;59166;48.908;1.870;2022-09-09T01:56:25;10.52;;;2.10;;
71360;SDS011;59166;48.908;1.870;2022-09-09T02:01:42;10.40;;;2.35;;
71360;SDS011;59166;48.908;1.870;2022-09-09T02:06:55;11.70;;;2.17;;
71360;SDS011;59166;48.908;1.870;2022-09-09T02:11:57;11.27;;;2.50;;
71360;SDS011;59166;48.908;1.870;2022-09-09T02:17:07;10.15;;;2.58;;
71360;SDS011;59166;48.908;1.870;2022-09-09T02:22:10;13.98;;;2.92;;
71360;SDS011;59166;48.908;1.870;2022-09-09T02:27:11;12.23;;;2.90;;
71360;SDS011;59166;48.908;1.870;2022-09-09T02:32:14;13.15;;;2.65;;
71360;SDS011;59166;48.908;1.870;2022-09-09T02:37:20;11.60;;;2.20;;
71360;SDS011;59166;48.908;1.870;2022-09-09T02:42:26;12.30;;;2.20;;
71360;SDS011;59166;48.908;1.870;2022-09-09T02:47:32;12.98;;;2.47;;
71360;SDS011;59166;48.908;1.870;2022-09-09T02:52:38;11.77;;;2.50;;
71360;SDS011;59166;48.908;1.870;2022-09-09T02:57:46;13.57;;;2.33;;
71360;SDS011;59166;48.908;1.870;2022-09-09T03:02:50;14.77;;;2.60;;
71360;SDS011;59166;48.908;1.870;2022-09-09T03:07:52;10.57;;;2.30;;
71360;SDS011;59166;48.908;1.870;2022-09-09T03:12:52;11.63;;;2.30;;
71360;SDS011;59166;48.908;1.870;2022-09-09T03:17:54;12.03;;;2.47;;
71360;SDS011;59166;48.908;1.870;2022-09-09T03:22:55;15.60;;;2.60;;
71360;SDS011;59166;48.908;1.870;2022-09-09T03:27:56;11.63;;;2.40;;
71360;SDS011;59166;48.908;1.870;2022-09-09T03:32:59;12.80;;;2.60;;
71360;SDS011;59166;48.908;1.870;2022-09-09T03:37:59;12.27;;;2.38;;
71360;SDS011;59166;48.908;1.870;2022-09-09T03:43:00;10.00;;;2.30;;
71360;SDS011;59166;48.908;1.870;2022-09-09T03:48:02;12.37;;;2.60;;
71360;SDS011;59166;48.908;1.870;2022-09-09T03:53:03;9.95;;;2.30;;
71360;SDS011;59166;48.908;1.870;2022-09-09T03:58:03;10.40;;;2.10;;
71360;SDS011;59166;48.908;1.870;2022-09-09T04:03:05;10.73;;;2.22;;
71360;SDS011;59166;48.908;1.870;2022-09-09T04:08:06;13.83;;;2.80;;
71360;SDS011;59166;48.908;1.870;2022-09-09T04:13:06;12.18;;;2.50;;
71360;SDS011;59166;48.908;1.870;2022-09-09T04:18:09;11.63;;;2.43;;
71360;SDS011;59166;48.908;1.870;2022-09-09T04:23:10;10.63;;;2.40;;
71360;SDS011;59166;48.908;1.870;2022-09-09T04:28:10;12.63;;;2.20;;
71360;SDS011;59166;48.908;1.870;2022-09-09T04:33:12;12.80;;;3.00;;
71360;SDS011;59166;48.908;1.870;2022-09-09T04:38:14;15.85;;;2.90;;
71360;SDS011;59166;48.908;1.870;2022-09-09T04:43:16;12.10;;;2.55;;
71360;SDS011;59166;48.908;1.870;2022-09-09T04:48:18;19.07;;;2.60;;
71360;SDS011;59166;48.908;1.870;2022-09-09T04:53:19;15.13;;;2.85;;
71360;SDS011;59166;48.908;1.870;2022-09-09T04:58:20;12.97;;;3.13;;
71360;SDS011;59166;48.908;1.870;2022-09-09T05:03:22;13.23;;;2.60;;
71360;SDS011;59166;48.908;1.870;2022-09-09T05:08:23;15.50;;;2.97;;
71360;SDS011;59166;48.908;1.870;2022-09-09T05:13:23;14.00;;;3.03;;
71360;SDS011;59166;48.908;1.870;2022-09-09T05:18:26;10.90;;;2.63;;
71360;SDS011;59166;48.908;1.870;2022-09-09T05:23:26;11.77;;;2.53;;
71360;SDS011;59166;48.908;1.870;2022-09-09T05:28:27;10.43;;;2.20;;
71360;SDS011;59166;48.908;1.870;2022-09-09T05:33:30;13.60;;;2.83;;
71360;SDS011;59166;48.908;1.870;2022-09-09T05:38:31;13.10;;;2.83;;
71360;SDS011;59166;48.908;1.870;2022-09-09T05:43:32;10.07;;;2.67;;
71360;SDS011;59166;48.908;1.870;2022-09-09T05:48:35;12.27;;;2.55;;
71360;SDS011;59166;48.908;1.870;2022-09-09T05:53:38;10.23;;;2.50;;
71360;SDS011;59166;48.908;1.870;2022-09-09T05:58:39;12.93;;;2.50;;
71360;SDS011;59166;48.908;1.870;2022-09-09T06:03:42;11.50;;;2.33;;
71360;SDS011;59166;48.908;1.870;2022-09-09T06:08:44;11.27;;;2.45;;
71360;SDS011;59166;48.908;1.870;2022-09-09T06:13:45;10.93;;;2.30;;
71360;SDS011;59166;48.908;1.870;2022-09-09T06:18:47;10.80;;;2.50;;
71360;SDS011;59166;48.908;1.870;2022-09-09T06:23:48;11.17;;;2.27;;
71360;SDS011;59166;48.908;1.870;2022-09-09T06:28:49;9.43;;;2.38;;
71360;SDS011;59166;48.908;1.870;2022-09-09T06:33:52;11.75;;;2.17;;
71360;SDS011;59166;48.908;1.870;2022-09-09T06:38:54;10.40;;;1.97;;
71360;SDS011;59166;48.908;1.870;2022-09-09T06:43:55;10.15;;;2.50;;
71360;SDS011;59166;48.908;1.870;2022-09-09T06:48:57;10.60;;;1.95;;
71360;SDS011;59166;48.908;1.870;2022-09-09T06:53:59;11.80;;;2.50;;
71360;SDS011;59166;48.908;1.870;2022-09-09T06:59:01;11.00;;;2.20;;
71360;SDS011;59166;48.908;1.870;2022-09-09T07:04:05;9.57;;;2.15;;
71360;SDS011;59166;48.908;1.870;2022-09-09T07:09:06;9.27;;;2.20;;
71360;SDS011;59166;48.908;1.870;2022-09-09T07:14:08;10.73;;;2.33;;
71360;SDS011;59166;48.908;1.870;2022-09-09T07:19:10;8.45;;;2.03;;
71360;SDS011;59166;48.908;1.870;2022-09-09T07:24:12;8.65;;;2.00;;
71360;SDS011;59166;48.908;1.870;2022-09-09T07:29:12;11.93;;;2.23;;
71360;SDS011;59166;48.908;1.870;2022-09-09T07:34:14;8.25;;;1.75;;
71360;SDS011;59166;48.908;1.870;2022-09-09T07:39:15;9.93;;;2.03;;
71360;SDS011;59166;48.908;1.870;2022-09-09T07:44:17;10.17;;;2.07;;
71360;SDS011;59166;48.908;1.870;2022-09-09T07:49:20;9.30;;;2.30;;
71360;SDS011;59166;48.908;1.870;2022-09-09T07:54:21;7.63;;;1.70;;
71360;SDS011;59166;48.908;1.870;2022-09-09T07:59:22;9.80;;;2.20;;
71360;SDS011;59166;48.908;1.870;2022-09-09T08:04:24;12.53;;;2.83;;
71360;SDS011;59166;48.908;1.870;2022-09-09T08:09:26;11.75;;;2.25;;
71360;SDS011;59166;48.908;1.870;2022-09-09T08:14:27;10.07;;;1.87;;
71360;SDS011;59166;48.908;1.870;2022-09-09T08:19:29;9.52;;;1.98;;
71360;SDS011;59166;48.908;1.870;2022-09-09T08:24:30;7.50;;;1.97;;
71360;SDS011;59166;48.908;1.870;2022-09-09T08:29:30;8.43;;;1.88;;
71360;SDS011;59166;48.908;1.870;2022-09-09T08:34:32;9.90;;;2.10;;
71360;SDS011;59166;48.908;1.870;2022-09-09T08:39:33;9.88;;;2.40;;
71360;SDS011;59166;48.908;1.870;2022-09-09T08:44:37;6.53;;;1.77;;
71360;SDS011;59166;48.908;1.870;2022-09-09T08:49:53;8.68;;;2.03;;
71360;SDS011;59166;48.908;1.870;2022-09-09T08:55:03;10.20;;;2.10;;
71360;SDS011;59166;48.908;1.870;2022-09-09T09:00:20;7.35;;;1.80;;
71360;SDS011;59166;48.908;1.870;2022-09-09T09:05:26;8.77;;;1.85;;
71360;SDS011;59166;48.908;1.870;2022-09-09T09:10:34;9.87;;;1.60;;
71360;SDS011;59166;48.908;1.870;2022-09-09T09:15:45;11.32;;;1.88;;
71360;SDS011;59166;48.908;1.870;2022-09-09T09:20:56;6.85;;;1.88;;
71360;SDS011;59166;48.908;1.870;2022-09-09T09:26:05;7.17;;;1.80;;
71360;SDS011;59166;48.908;1.870;2022-09-09T09:31:09;8.33;;;1.80;;
71360;SDS011;59166;48.908;1.870;2022-09-09T09:36:12;8.05;;;1.73;;
71360;SDS011;59166;48.908;1.870;2022-09-09T09:41:13;11.55;;;1.63;;
71360;SDS011;59166;48.908;1.870;2022-09-09T09:46:19;7.40;;;1.60;;
71360;SDS011;59166;48.908;1.870;2022-09-09T09:51:22;10.43;;;2.00;;
71360;SDS011;59166;48.908;1.870;2022-09-09T09:56:27;7.63;;;1.77;;
71360;SDS011;59166;48.908;1.870;2022-09-09T10:01:29;7.15;;;1.60;;
71360;SDS011;59166;48.908;1.870;2022-09-09T10:06:32;7.75;;;1.65;;
71360;SDS011;59166;48.908;1.870;2022-09-09T10:11:38;6.97;;;1.40;;
71360;SDS011;59166;48.908;1.870;2022-09-09T10:16:47;7.47;;;1.80;;
71360;SDS011;59166;48.908;1.870;2022-09-09T10:22:07;5.07;;;1.58;;
71360;SDS011;59166;48.908;1.870;2022-09-09T10:27:19;9.13;;;1.70;;
71360;SDS011;59166;48.908;1.870;2022-09-09T10:32:30;7.23;;;1.50;;
71360;SDS011;59166;48.908;1.870;2022-09-09T10:37:50;8.82;;;1.95;;
71360;SDS011;59166;48.908;1.870;2022-09-09T10:43:04;9.27;;;1.80;;
71360;SDS011;59166;48.908;1.870;2022-09-09T10:48:19;5.93;;;1.50;;
71360;SDS011;59166;48.908;1.870;2022-09-09T10:53:35;8.43;;;1.80;;
71360;SDS011;59166;48.908;1.870;2022-09-09T10:58:41;9.07;;;1.85;;
71360;SDS011;59166;48.908;1.870;2022-09-09T11:03:49;7.70;;;1.60;;
71360;SDS011;59166;48.908;1.870;2022-09-09T11:08:56;8.82;;;1.90;;
71360;SDS011;59166;48.908;1.870;2022-09-09T11:14:01;7.10;;;1.80;;
71360;SDS011;59166;48.908;1.870;2022-09-09T11:19:09;11.70;;;2.10;;
71360;SDS011;59166;48.908;1.870;2022-09-09T11:24:18;9.57;;;2.20;;
71360;SDS011;59166;48.908;1.870;2022-09-09T11:29:36;7.35;;;1.70;;
71360;SDS011;59166;48.908;1.870;2022-09-09T11:35:00;10.15;;;1.70;;
71360;SDS011;59166;48.908;1.870;2022-09-09T11:40:18;9.57;;;1.73;;
71360;SDS011;59166;48.908;1.870;2022-09-09T11:45:23;7.22;;;1.63;;
71360;SDS011;59166;48.908;1.870;2022-09-09T11:50:29;8.13;;;1.80;;
71360;SDS011;59166;48.908;1.870;2022-09-09T11:55:34;9.50;;;2.07;;
71360;SDS011;59166;48.908;1.870;2022-09-09T12:00:36;9.32;;;1.80;;
71360;SDS011;59166;48.908;1.870;2022-09-09T12:05:39;10.93;;;2.30;;
71360;SDS011;59166;48.908;1.870;2022-09-09T12:10:52;11.40;;;2.20;;
71360;SDS011;59166;48.908;1.870;2022-09-09T12:15:55;10.37;;;2.60;;
71360;SDS011;59166;48.908;1.870;2022-09-09T12:20:59;8.35;;;2.35;;
71360;SDS011;59166;48.908;1.870;2022-09-09T12:26:11;8.95;;;2.40;;
71360;SDS011;59166;48.908;1.870;2022-09-09T12:31:31;9.77;;;2.47;;
71360;SDS011;59166;48.908;1.870;2022-09-09T12:36:38;8.75;;;2.22;;
71360;SDS011;59166;48.908;1.870;2022-09-09T12:41:50;9.95;;;2.47;;
71360;SDS011;59166;48.908;1.870;2022-09-09T12:46:51;11.73;;;2.73;;
71360;SDS011;59166;48.908;1.870;2022-09-09T12:51:53;10.02;;;2.33;;
71360;SDS011;59166;48.908;1.870;2022-09-09T12:56:55;7.47;;;2.30;;
71360;SDS011;59166;48.908;1.870;2022-09-09T13:01:57;8.83;;;2.10;;
71360;SDS011;59166;48.908;1.870;2022-09-09T13:07:05;6.93;;;1.50;;
71360;SDS011;59166;48.908;1.870;2022-09-09T13:12:09;4.95;;;1.25;;
71360;SDS011;59166;48.908;1.870;2022-09-09T13:17:18;5.55;;;1.10;;
71360;SDS011;59166;48.908;1.870;2022-09-09T13:22:21;5.63;;;1.33;;
71360;SDS011;59166;48.908;1.870;2022-09-09T13:27:29;5.60;;;1.60;;
71360;SDS011;59166;48.908;1.870;2022-09-09T13:32:32;5.82;;;1.88;;
71360;SDS011;59166;48.908;1.870;2022-09-09T13:37:33;8.17;;;2.10;;
71360;SDS011;59166;48.908;1.870;2022-09-09T13:42:38;6.80;;;1.75;;
71360;SDS011;59166;48.908;1.870;2022-09-09T13:47:41;7.10;;;1.97;;
71360;SDS011;59166;48.908;1.870;2022-09-09T13:52:42;7.18;;;1.60;;
71360;SDS011;59166;48.908;1.870;2022-09-09T13:57:51;8.20;;;2.00;;
71360;SDS011;59166;48.908;1.870;2022-09-09T14:02:52;7.32;;;1.88;;
71360;SDS011;59166;48.908;1.870;2022-09-09T14:07:53;7.37;;;1.70;;
71360;SDS011;59166;48.908;1.870;2022-09-09T14:12:55;6.50;;;2.00;;
71360;SDS011;59166;48.908;1.870;2022-09-09T14:17:56;7.67;;;2.00;;
71360;SDS011;59166;48.908;1.870;2022-09-09T14:22:56;8.48;;;2.10;;
71360;SDS011;59166;48.908;1.870;2022-09-09T14:27:58;6.97;;;1.80;;
71360;SDS011;59166;48.908;1.870;2022-09-09T14:33:00;6.53;;;1.90;;
71360;SDS011;59166;48.908;1.870;2022-09-09T14:38:00;6.03;;;1.50;;
71360;SDS011;59166;48.908;1.870;2022-09-09T14:43:03;5.17;;;1.50;;
71360;SDS011;59166;48.908;1.870;2022-09-09T14:48:04;5.53;;;1.40;;
71360;SDS011;59166;48.908;1.870;2022-09-09T14:53:05;4.73;;;1.50;;
71360;SDS011;59166;48.908;1.870;2022-09-09T14:58:07;6.40;;;1.80;;
71360;SDS011;59166;48.908;1.870;2022-09-09T15:03:07;8.77;;;1.60;;
71360;SDS011;59166;48.908;1.870;2022-09-09T15:08:08;5.47;;;1.57;;
71360;SDS011;59166;48.908;1.870;2022-09-09T15:13:10;7.05;;;1.77;;
71360;SDS011;59166;48.908;1.870;2022-09-09T15:18:11;6.97;;;1.67;;
71360;SDS011;59166;48.908;1.870;2022-09-09T15:23:11;6.88;;;1.58;;
71360;SDS011;59166;48.908;1.870;2022-09-09T15:28:14;6.43;;;1.70;;
71360;SDS011;59166;48.908;1.870;2022-09-09T15:33:14;6.25;;;1.83;;
71360;SDS011;59166;48.908;1.870;2022-09-09T15:38:15;5.40;;;1.58;;
71360;SDS011;59166;48.908;1.870;2022-09-09T15:43:17;7.90;;;2.00;;
71360;SDS011;59166;48.908;1.870;2022-09-09T15:48:18;7.97;;;2.05;;
71360;SDS011;59166;48.908;1.870;2022-09-09T15:53:19;7.67;;;1.80;;
71360;SDS011;59166;48.908;1.870;2022-09-09T15:58:21;6.57;;;1.80;;
71360;SDS011;59166;48.908;1.870;2022-09-09T16:03:22;7.15;;;1.80;;
71360;SDS011;59166;48.908;1.870;2022-09-09T16:08:23;8.67;;;2.00;;
71360;SDS011;59166;48.908;1.870;2022-09-09T16:13:25;7.23;;;2.10;;
71360;SDS011;59166;48.908;1.870;2022-09-09T16:18:26;7.30;;;1.92;;
71360;SDS011;59166;48.908;1.870;2022-09-09T16:23:26;5.80;;;1.77;;
71360;SDS011;59166;48.908;1.870;2022-09-09T16:28:28;7.22;;;1.90;;
71360;SDS011;59166;48.908;1.870;2022-09-09T16:33:29;6.90;;;2.10;;
71360;SDS011;59166;48.908;1.870;2022-09-09T16:38:30;6.03;;;1.50;;
71360;SDS011;59166;48.908;1.870;2022-09-09T16:43:32;7.27;;;1.80;;
71360;SDS011;59166;48.908;1.870;2022-09-09T16:48:34;7.63;;;2.03;;
71360;SDS011;59166;48.908;1.870;2022-09-09T16:53:34;9.40;;;2.00;;
71360;SDS011;59166;48.908;1.870;2022-09-09T16:58:36;6.68;;;1.80;;
71360;SDS011;59166;48.908;1.870;2022-09-09T17:03:37;9.13;;;2.03;;
71360;SDS011;59166;48.908;1.870;2022-09-09T17:08:38;7.03;;;2.00;;
71360;SDS011;59166;48.908;1.870;2022-09-09T17:13:40;7.77;;;1.97;;
71360;SDS011;59166;48.908;1.870;2022-09-09T17:18:43;8.35;;;2.08;;
71360;SDS011;59166;48.908;1.870;2022-09-09T17:23:44;5.83;;;1.70;;
71360;SDS011;59166;48.908;1.870;2022-09-09T17:28:47;7.20;;;1.90;;
71360;SDS011;59166;48.908;1.870;2022-09-09T17:33:48;8.60;;;1.95;;
71360;SDS011;59166;48.908;1.870;2022-09-09T17:38:50;9.02;;;2.05;;
71360;SDS011;59166;48.908;1.870;2022-09-09T17:43:53;8.07;;;2.13;;
71360;SDS011;59166;48.908;1.870;2022-09-09T17:48:55;8.52;;;2.03;;
71360;SDS011;59166;48.908;1.870;2022-09-09T17:53:57;7.50;;;1.98;;
71360;SDS011;59166;48.908;1.870;2022-09-09T17:59:01;8.47;;;1.90;;
71360;SDS011;59166;48.908;1.870;2022-09-09T18:04:04;7.85;;;1.88;;
71360;SDS011;59166;48.908;1.870;2022-09-09T18:09:07;10.70;;;1.90;;
71360;SDS011;59166;48.908;1.870;2022-09-09T18:14:11;7.10;;;1.90;;
71360;SDS011;59166;48.908;1.870;2022-09-09T18:19:13;7.30;;;1.90;;
71360;SDS011;59166;48.908;1.870;2022-09-09T18:24:16;9.10;;;1.77;;
71360;SDS011;59166;48.908;1.870;2022-09-09T18:29:20;6.72;;;1.92;;
71360;SDS011;59166;48.908;1.870;2022-09-09T18:34:22;8.13;;;2.00;;
71360;SDS011;59166;48.908;1.870;2022-09-09T18:39:24;10.10;;;2.30;;
71360;SDS011;59166;48.908;1.870;2022-09-09T18:44:28;10.07;;;1.98;;
71360;SDS011;59166;48.908;1.870;2022-09-09T18:49:30;7.07;;;2.20;;
71360;SDS011;59166;48.908;1.870;2022-09-09T18:54:31;11.15;;;2.30;;
71360;SDS011;59166;48.908;1.870;2022-09-09T18:59:33;6.70;;;2.10;;
71360;SDS011;59166;48.908;1.870;2022-09-09T19:04:33;8.68;;;2.10;;
71360;SDS011;59166;48.908;1.870;2022-09-09T19:09:34;11.23;;;2.37;;
71360;SDS011;59166;48.908;1.870;2022-09-09T19:14:36;9.30;;;2.33;;
71360;SDS011;59166;48.908;1.870;2022-09-09T19:19:36;9.23;;;2.63;;
71360;SDS011;59166;48.908;1.870;2022-09-09T19:24:37;9.68;;;2.13;;
71360;SDS011;59166;48.908;1.870;2022-09-09T19:29:39;12.33;;;2.30;;
71360;SDS011;59166;48.908;1.870;2022-09-09T19:34:40;7.85;;;2.30;;
71360;SDS011;59166;48.908;1.870;2022-09-09T19:39:41;10.57;;;2.30;;
71360;SDS011;59166;48.908;1.870;2022-09-09T19:44:43;9.07;;;2.23;;
71360;SDS011;59166;48.908;1.870;2022-09-09T19:49:44;7.60;;;2.28;;
71360;SDS011;59166;48.908;1.870;2022-09-09T19:54:45;10.82;;;2.47;;
71360;SDS011;59166;48.908;1.870;2022-09-09T19:59:51;7.70;;;2.40;;
71360;SDS011;59166;48.908;1.870;2022-09-09T20:04:52;9.07;;;2.58;;
71360;SDS011;59166;48.908;1.870;2022-09-09T20:09:53;7.50;;;2.10;;
71360;SDS011;59166;48.908;1.870;2022-09-09T20:14:55;9.35;;;2.47;;
71360;SDS011;59166;48.908;1.870;2022-09-09T20:19:55;8.53;;;1.97;;
71360;SDS011;59166;48.908;1.870;2022-09-09T20:24:56;10.55;;;2.35;;
71360;SDS011;59166;48.908;1.870;2022-09-09T20:29:58;7.73;;;2.30;;
71360;SDS011;59166;48.908;1.870;2022-09-09T20:34:59;8.93;;;2.10;;
71360;SDS011;59166;48.908;1.870;2022-09-09T20:39:59;8.70;;;2.40;;
71360;SDS011;59166;48.908;1.870;2022-09-09T20:45:02;9.07;;;2.00;;
71360;SDS011;59166;48.908;1.870;2022-09-09T20:50:03;9.03;;;2.37;;
71360;SDS011;59166;48.908;1.870;2022-09-09T20:55:04;10.27;;;2.58;;
71360;SDS011;59166;48.908;1.870;2022-09-09T21:00:07;8.13;;;2.25;;
71360;SDS011;59166;48.908;1.870;2022-09-09T21:05:09;10.00;;;2.20;;
71360;SDS011;59166;48.908;1.870;2022-09-09T21:10:10;6.27;;;2.03;;
71360;SDS011;59166;48.908;1.870;2022-09-09T21:15:12;7.70;;;1.80;;
71360;SDS011;59166;48.908;1.870;2022-09-09T21:20:13;8.85;;;2.30;;
71360;SDS011;59166;48.908;1.870;2022-09-09T21:25:14;11.07;;;2.47;;
71360;SDS011;59166;48.908;1.870;2022-09-09T21:30:16;9.52;;;2.15;;
71360;SDS011;59166;48.908;1.870;2022-09-09T21:35:17;11.30;;;2.27;;
71360;SDS011;59166;48.908;1.870;2022-09-09T21:40:17;9.23;;;2.30;;
71360;SDS011;59166;48.908;1.870;2022-09-09T21:45:22;7.90;;;2.30;;
71360;SDS011;59166;48.908;1.870;2022-09-09T21:50:23;9.63;;;2.10;;
71360;SDS011;59166;48.908;1.870;2022-09-09T21:55:23;8.73;;;2.50;;
71360;SDS011;59166;48.908;1.870;2022-09-09T22:06:04;9.65;;;2.08;;
71360;SDS011;59166;48.908;1.870;2022-09-09T22:11:07;9.67;;;2.17;;
71360;SDS011;59166;48.908;1.870;2022-09-09T22:16:10;12.25;;;2.60;;
71360;SDS011;59166;48.908;1.870;2022-09-09T22:21:13;10.55;;;2.47;;
71360;SDS011;59166;48.908;1.870;2022-09-09T22:26:15;14.33;;;2.43;;
71360;SDS011;59166;48.908;1.870;2022-09-09T22:31:16;10.70;;;2.25;;
71360;SDS011;59166;48.908;1.870;2022-09-09T22:36:18;9.20;;;2.23;;
71360;SDS011;59166;48.908;1.870;2022-09-09T22:41:20;10.63;;;2.35;;
71360;SDS011;59166;48.908;1.870;2022-09-09T22:46:21;9.00;;;2.23;;
71360;SDS011;59166;48.908;1.870;2022-09-09T22:51:23;10.20;;;2.67;;
71360;SDS011;59166;48.908;1.870;2022-09-09T22:56:24;10.82;;;2.40;;
71360;SDS011;59166;48.908;1.870;2022-09-09T23:01:25;13.30;;;2.37;;
71360;SDS011;59166;48.908;1.870;2022-09-09T23:06:28;9.63;;;2.22;;
71360;SDS011;59166;48.908;1.870;2022-09-09T23:11:29;8.43;;;2.30;;
71360;SDS011;59166;48.908;1.870;2022-09-09T23:16:32;8.13;;;2.30;;
71360;SDS011;59166;48.908;1.870;2022-09-09T23:21:36;11.52;;;2.30;;
71360;SDS011;59166;48.908;1.870;2022-09-09T23:26:38;11.55;;;2.58;;
71360;SDS011;59166;48.908;1.870;2022-09-09T23:31:39;11.40;;;2.50;;
71360;SDS011;59166;48.908;1.870;2022-09-09T23:36:43;12.18;;;2.53;;
71360;SDS011;59166;48.908;1.870;2022-09-09T23:41:44;7.90;;;2.10;;
71360;SDS011;59166;48.908;1.870;2022-09-09T23:46:44;10.30;;;2.33;;
71360;SDS011;59166;48.908;1.870;2022-09-09T23:51:47;9.63;;;2.55;;
71360;SDS011;59166;48.908;1.870;2022-09-09T23:56:47;11.13;;;2.47;;
